createdAt,value
2018-08-09T00:01:35.070Z,6.90
2018-08-09T00:04:04.006Z,7.60
2018-08-09T00:06:33.025Z,8.13
2018-08-09T00:09:01.952Z,7.67
2018-08-09T00:11:30.984Z,7.43
2018-08-09T00:13:59.925Z,7.47
2018-08-09T00:16:28.952Z,7.27
2018-08-09T00:18:57.970Z,7.40
2018-08-09T00:21:26.878Z,8.33
2018-08-09T00:23:55.912Z,7.17
2018-08-09T00:26:24.835Z,8.37
2018-08-09T00:28:53.871Z,6.70
2018-08-09T00:31:22.898Z,7.00
2018-08-09T00:33:51.968Z,6.73
2018-08-09T00:36:21.023Z,9.97
2018-08-09T00:38:50.098Z,7.57
2018-08-09T00:41:19.161Z,6.57
2018-08-09T00:43:48.159Z,7.00
2018-08-09T00:46:17.146Z,8.43
2018-08-09T00:48:46.104Z,7.07
2018-08-09T00:51:15.042Z,7.17
2018-08-09T00:53:44.004Z,6.70
2018-08-09T00:56:13.083Z,7.40
2018-08-09T00:58:42.048Z,5.97
2018-08-09T01:01:11.087Z,5.73
2018-08-09T01:03:40.147Z,5.87
2018-08-09T01:06:09.244Z,6.67
2018-08-09T01:08:38.326Z,6.97
2018-08-09T01:11:07.712Z,9.20
2018-08-09T01:13:36.648Z,7.83
2018-08-09T01:16:05.685Z,6.50
2018-08-09T01:18:34.676Z,7.23
2018-08-09T01:21:03.604Z,6.27
2018-08-09T01:23:32.681Z,7.13
2018-08-09T01:26:01.627Z,6.00
2018-08-09T01:28:30.766Z,6.63
2018-08-09T01:30:59.785Z,9.90
2018-08-09T01:33:28.789Z,7.40
2018-08-09T01:35:57.757Z,7.50
2018-08-09T01:38:26.752Z,7.87
2018-08-09T01:40:55.722Z,6.10
2018-08-09T01:43:35.523Z,8.67
2018-08-09T01:46:04.502Z,7.83
2018-08-09T01:48:33.481Z,8.23
2018-08-09T01:51:02.485Z,7.63
2018-08-09T01:53:31.546Z,6.87
2018-08-09T01:56:00.611Z,6.93
2018-08-09T01:58:29.667Z,8.23
2018-08-09T02:00:58.729Z,6.70
2018-08-09T02:03:27.728Z,9.17
2018-08-09T02:05:56.697Z,6.50
2018-08-09T02:08:25.669Z,6.13
2018-08-09T02:10:54.709Z,6.50
2018-08-09T02:13:23.686Z,7.50
2018-08-09T02:15:52.646Z,6.07
2018-08-09T02:18:21.689Z,6.20
2018-08-09T02:20:50.690Z,6.63
2018-08-09T02:23:19.750Z,6.27
2018-08-09T02:25:48.711Z,6.30
2018-08-09T02:28:17.872Z,10.33
2018-08-09T02:30:46.890Z,6.00
2018-08-09T02:33:16.125Z,6.23
2018-08-09T02:35:45.425Z,5.90
2018-08-09T02:38:14.376Z,9.50
2018-08-09T02:40:43.342Z,6.80
2018-08-09T02:43:12.320Z,7.60
2018-08-09T02:45:41.329Z,5.40
2018-08-09T02:48:10.387Z,6.80
2018-08-09T02:50:39.453Z,6.20
2018-08-09T02:53:08.509Z,6.10
2018-08-09T02:55:37.529Z,5.47
2018-08-09T02:58:06.649Z,5.73
2018-08-09T03:00:35.595Z,6.97
2018-08-09T03:03:04.629Z,6.70
2018-08-09T03:05:33.592Z,6.37
2018-08-09T03:08:02.542Z,6.57
2018-08-09T03:10:31.630Z,5.47
2018-08-09T03:13:00.661Z,6.30
2018-08-09T03:15:29.655Z,6.73
2018-08-09T03:17:58.765Z,8.10
2018-08-09T03:20:27.937Z,5.77
2018-08-09T03:22:59.866Z,6.53
2018-08-09T03:25:28.972Z,5.80
2018-08-09T03:27:57.988Z,8.00
2018-08-09T03:30:26.964Z,5.60
2018-08-09T03:32:55.992Z,5.83
2018-08-09T03:35:24.944Z,6.73
2018-08-09T03:37:53.942Z,6.13
2018-08-09T03:40:22.951Z,6.27
2018-08-09T03:42:51.909Z,6.80
2018-08-09T03:45:20.925Z,6.10
2018-08-09T03:47:49.857Z,7.10
2018-08-09T03:50:18.849Z,5.73
2018-08-09T03:52:47.826Z,5.20
2018-08-09T03:55:16.802Z,6.00
2018-08-09T03:57:45.767Z,5.47
2018-08-09T04:00:15.307Z,5.47
2018-08-09T04:02:44.448Z,6.93
2018-08-09T04:05:13.348Z,5.43
2018-08-09T04:07:42.903Z,6.33
2018-08-09T04:10:11.886Z,5.93
2018-08-09T04:12:40.948Z,5.63
2018-08-09T04:15:11.244Z,5.63
2018-08-09T04:17:40.202Z,5.73
2018-08-09T04:20:09.372Z,4.43
2018-08-09T04:22:38.389Z,6.57
2018-08-09T04:25:07.402Z,7.87
2018-08-09T04:27:36.422Z,6.93
2018-08-09T04:30:05.882Z,5.67
2018-08-09T04:32:34.949Z,6.13
2018-08-09T04:35:04.009Z,5.23
2018-08-09T04:37:33.030Z,4.67
2018-08-09T04:40:01.943Z,5.80
2018-08-09T04:42:30.865Z,7.47
2018-08-09T04:44:59.899Z,6.20
2018-08-09T04:47:29.036Z,6.30
2018-08-09T04:49:58.064Z,5.60
2018-08-09T04:52:27.169Z,6.03
2018-08-09T04:54:56.111Z,6.17
2018-08-09T04:57:25.098Z,6.37
2018-08-09T04:59:54.240Z,5.30
2018-08-09T05:02:23.187Z,8.67
2018-08-09T05:04:52.241Z,6.20
2018-08-09T05:07:21.225Z,5.53
2018-08-09T05:09:50.237Z,5.47
2018-08-09T05:12:19.249Z,6.53
2018-08-09T05:14:48.330Z,6.67
2018-08-09T05:17:17.387Z,5.93
2018-08-09T05:19:46.432Z,5.80
2018-08-09T05:22:15.511Z,5.93
2018-08-09T05:24:44.533Z,6.77
2018-08-09T05:27:13.529Z,5.10
2018-08-09T05:29:42.567Z,7.73
2018-08-09T05:32:11.566Z,6.40
2018-08-09T05:34:40.602Z,9.07
2018-08-09T05:37:09.649Z,5.43
2018-08-09T05:39:38.647Z,5.90
2018-08-09T05:42:07.806Z,5.50
2018-08-09T05:44:36.832Z,5.93
2018-08-09T05:47:05.945Z,5.00
2018-08-09T05:49:35.104Z,5.37
2018-08-09T05:52:04.166Z,5.27
2018-08-09T05:54:33.167Z,5.33
2018-08-09T05:57:02.179Z,6.13
2018-08-09T05:59:31.226Z,5.27
2018-08-09T06:02:00.322Z,5.40
2018-08-09T06:04:29.401Z,5.43
2018-08-09T06:06:58.426Z,5.57
2018-08-09T06:09:27.459Z,4.83
2018-08-09T06:11:56.480Z,5.27
2018-08-09T06:14:25.583Z,5.50
2018-08-09T06:16:54.599Z,4.87
2018-08-09T06:19:23.687Z,4.87
2018-08-09T06:21:52.635Z,4.80
2018-08-09T06:24:21.706Z,5.27
2018-08-09T06:26:50.821Z,4.73
2018-08-09T06:29:19.826Z,5.50
2018-08-09T06:31:49.054Z,5.80
2018-08-09T06:34:18.026Z,4.80
2018-08-09T06:36:47.059Z,5.30
2018-08-09T06:39:16.182Z,4.13
2018-08-09T06:41:45.272Z,6.20
2018-08-09T06:44:14.289Z,4.90
2018-08-09T06:46:43.315Z,5.00
2018-08-09T06:49:12.370Z,4.90
2018-08-09T06:51:41.407Z,5.87
2018-08-09T06:54:10.566Z,4.97
2018-08-09T06:56:39.593Z,5.07
2018-08-09T06:59:08.605Z,5.73
2018-08-09T07:01:37.646Z,4.97
2018-08-09T07:04:06.746Z,5.63
2018-08-09T07:06:35.748Z,5.00
2018-08-09T07:09:07.609Z,7.40
2018-08-09T07:11:36.694Z,5.40
2018-08-09T07:14:05.936Z,7.37
2018-08-09T07:16:34.989Z,8.53
2018-08-09T07:19:04.105Z,7.60
2018-08-09T07:21:33.183Z,5.90
2018-08-09T07:24:02.162Z,5.20
2018-08-09T07:26:31.216Z,5.13
2018-08-09T07:29:00.206Z,6.17
2018-08-09T07:31:29.359Z,7.20
2018-08-09T07:33:58.447Z,5.17
2018-08-09T07:36:27.541Z,5.70
2018-08-09T07:38:56.593Z,6.37
2018-08-09T07:41:25.713Z,5.50
2018-08-09T07:43:54.689Z,5.60
2018-08-09T07:46:23.681Z,4.83
2018-08-09T07:48:52.794Z,6.60
2018-08-09T07:51:21.748Z,4.93
2018-08-09T07:53:50.731Z,5.17
2018-08-09T07:56:19.801Z,6.83
2018-08-09T07:58:48.852Z,6.03
2018-08-09T08:01:17.894Z,7.07
2018-08-09T08:03:46.992Z,6.70
2018-08-09T08:06:16.174Z,7.20
2018-08-09T08:08:45.227Z,4.80
2018-08-09T08:11:14.326Z,10.17
2018-08-09T08:13:43.445Z,5.40
2018-08-09T08:16:12.405Z,5.90
2018-08-09T08:18:41.414Z,5.50
2018-08-09T08:21:10.464Z,6.30
2018-08-09T08:23:39.545Z,9.50
2018-08-09T08:26:08.741Z,8.57
2018-08-09T08:28:37.886Z,9.27
2018-08-09T08:31:06.898Z,8.53
2018-08-09T08:33:35.966Z,8.40
2018-08-09T08:36:05.072Z,7.13
2018-08-09T08:38:34.069Z,10.53
2018-08-09T08:41:03.109Z,11.47
2018-08-09T08:43:32.107Z,9.20
2018-08-09T08:46:01.078Z,10.60
2018-08-09T08:48:30.147Z,10.17
2018-08-09T08:50:59.146Z,10.53
2018-08-09T08:53:28.147Z,13.63
2018-08-09T08:55:57.306Z,9.90
2018-08-09T08:58:26.310Z,10.17
2018-08-09T09:00:55.428Z,10.97
2018-08-09T09:03:24.444Z,10.10
2018-08-09T09:05:53.527Z,11.87
2018-08-09T09:08:22.559Z,13.70
2018-08-09T09:10:55.951Z,12.63
2018-08-09T09:13:25.125Z,11.90
2018-08-09T09:15:54.166Z,13.40
2018-08-09T09:18:23.171Z,12.77
2018-08-09T09:20:52.235Z,15.47
2018-08-09T09:23:21.274Z,13.17
2018-08-09T09:25:50.401Z,12.07
2018-08-09T09:28:19.465Z,11.63
2018-08-09T09:30:48.527Z,13.37
2018-08-09T09:33:17.568Z,13.13
2018-08-09T09:35:46.666Z,12.43
2018-08-09T09:38:15.686Z,13.73
2018-08-09T09:40:44.694Z,14.60
2018-08-09T09:43:13.727Z,14.60
2018-08-09T09:45:42.810Z,13.07
2018-08-09T09:48:11.747Z,13.43
2018-08-09T09:50:40.822Z,12.57
2018-08-09T09:53:09.878Z,12.60
2018-08-09T09:55:38.903Z,12.47
2018-08-09T09:58:07.933Z,17.17
2018-08-09T10:00:42.004Z,14.67
2018-08-09T10:03:11.139Z,14.67
2018-08-09T10:05:40.169Z,13.97
2018-08-09T10:08:09.183Z,14.43
2018-08-09T10:10:38.246Z,15.00
2018-08-09T10:13:07.247Z,13.70
2018-08-09T10:15:36.268Z,15.78
2018-08-09T10:18:05.526Z,14.58
2018-08-09T10:20:34.567Z,15.23
2018-08-09T10:23:03.686Z,14.35
2018-08-09T10:25:32.739Z,14.80
2018-08-09T10:28:01.768Z,15.50
2018-08-09T10:30:30.790Z,15.90
2018-08-09T10:33:00.428Z,15.43
2018-08-09T10:35:29.487Z,14.58
2018-08-09T10:37:58.509Z,16.35
2018-08-09T10:40:27.477Z,16.32
2018-08-09T10:42:56.476Z,15.28
2018-08-09T10:45:25.440Z,16.93
2018-08-09T10:47:54.486Z,16.52
2018-08-09T10:50:23.525Z,15.03
2018-08-09T10:52:52.549Z,15.98
2018-08-09T10:55:21.596Z,16.10
2018-08-09T10:57:50.547Z,15.93
2018-08-09T11:00:19.673Z,15.68
2018-08-09T11:02:48.741Z,14.85
2018-08-09T11:05:17.763Z,15.48
2018-08-09T11:07:46.812Z,15.25
2018-08-09T11:10:15.844Z,15.88
2018-08-09T11:12:44.865Z,15.50
2018-08-09T11:15:13.925Z,16.80
2018-08-09T11:17:43.077Z,14.63
2018-08-09T11:20:12.148Z,15.23
2018-08-09T11:22:41.202Z,14.87
2018-08-09T11:25:10.670Z,15.05
2018-08-09T11:27:39.876Z,14.28
2018-08-09T11:30:08.836Z,14.18
2018-08-09T11:32:37.912Z,14.20
2018-08-09T11:35:06.968Z,14.70
2018-08-09T11:37:36.001Z,14.73
2018-08-09T11:40:05.141Z,14.28
2018-08-09T11:42:34.126Z,12.95
2018-08-09T11:45:03.161Z,12.65
2018-08-09T11:47:32.262Z,13.20
2018-08-09T11:50:01.208Z,11.40
2018-08-09T11:52:30.188Z,12.18
2018-08-09T11:54:59.172Z,11.63
2018-08-09T11:57:28.306Z,11.43
2018-08-09T11:59:57.406Z,12.10
2018-08-09T12:02:26.350Z,11.78
2018-08-09T12:04:55.283Z,11.22
2018-08-09T12:07:24.269Z,10.63
2018-08-09T12:09:53.305Z,12.60
2018-08-09T12:12:22.395Z,11.78
2018-08-09T12:14:51.495Z,14.07
2018-08-09T12:17:20.458Z,11.55
2018-08-09T12:19:49.595Z,10.90
2018-08-09T12:22:18.592Z,11.88
2018-08-09T12:24:47.722Z,11.50
2018-08-09T12:27:16.872Z,11.75
2018-08-09T12:29:45.818Z,11.65
2018-08-09T12:32:14.847Z,10.95
2018-08-09T12:34:43.911Z,11.22
2018-08-09T12:37:13.038Z,12.35
2018-08-09T12:39:42.145Z,10.63
2018-08-09T12:42:11.215Z,12.03
2018-08-09T12:44:40.392Z,12.18
2018-08-09T12:47:09.586Z,11.78
2018-08-09T12:49:38.623Z,11.50
2018-08-09T12:52:07.905Z,10.43
2018-08-09T12:54:36.872Z,11.48
2018-08-09T12:57:05.871Z,11.55
2018-08-09T12:59:35.044Z,11.65
2018-08-09T13:02:04.148Z,12.28
2018-08-09T13:04:33.123Z,13.32
2018-08-09T13:07:02.159Z,11.22
2018-08-09T13:09:31.249Z,12.60
2018-08-09T13:12:00.358Z,11.05
2018-08-09T13:14:29.386Z,11.53
2018-08-09T13:16:58.438Z,12.10
2018-08-09T13:19:27.458Z,11.35
2018-08-09T13:21:56.579Z,11.12
2018-08-09T13:24:25.586Z,11.57
2018-08-09T13:26:54.709Z,10.88
2018-08-09T13:29:23.891Z,11.83
2018-08-09T13:31:52.972Z,11.45
2018-08-09T13:34:21.974Z,11.00
2018-08-09T13:36:51.149Z,11.48
2018-08-09T13:39:20.312Z,10.65
2018-08-09T13:41:49.377Z,10.63
2018-08-09T13:44:18.417Z,10.93
2018-08-09T13:46:47.364Z,11.43
2018-08-09T13:49:16.408Z,10.90
2018-08-09T13:51:45.492Z,11.53
2018-08-09T13:54:14.576Z,10.53
2018-08-09T13:56:43.592Z,9.83
2018-08-09T13:59:12.628Z,10.88
2018-08-09T14:01:41.661Z,10.40
2018-08-09T14:04:10.984Z,10.70
2018-08-09T14:06:40.107Z,10.20
2018-08-09T14:09:12.377Z,11.35
2018-08-09T14:11:42.036Z,10.98
2018-08-09T14:14:11.308Z,11.00
2018-08-09T14:16:40.766Z,10.88
2018-08-09T14:19:10.127Z,10.75
2018-08-09T14:21:39.376Z,10.40
2018-08-09T14:24:09.228Z,10.45
2018-08-09T14:26:38.303Z,10.80
2018-08-09T14:29:08.614Z,10.63
2018-08-09T14:31:38.065Z,11.18
2018-08-09T14:34:07.355Z,11.55
2018-08-09T14:36:36.365Z,10.88
2018-08-09T14:39:08.772Z,10.60
2018-08-09T14:41:37.846Z,11.25
2018-08-09T14:44:07.389Z,11.73
2018-08-09T14:46:36.548Z,10.95
2018-08-09T14:49:05.766Z,11.03
2018-08-09T14:51:34.907Z,10.65
2018-08-09T14:54:04.074Z,11.43
2018-08-09T14:56:33.217Z,10.75
2018-08-09T14:59:02.308Z,11.68
2018-08-09T15:01:32.392Z,11.15
2018-08-09T15:04:01.421Z,10.85
2018-08-09T15:06:30.409Z,11.75
2018-08-09T15:08:59.464Z,11.00
2018-08-09T15:11:28.609Z,12.00
2018-08-09T15:13:57.609Z,11.97
2018-08-09T15:16:26.746Z,11.03
2018-08-09T15:18:55.752Z,11.12
2018-08-09T15:21:24.814Z,11.12
2018-08-09T15:23:53.941Z,11.12
2018-08-09T15:26:23.127Z,11.73
2018-08-09T15:28:52.176Z,12.10
2018-08-09T15:31:21.346Z,11.73
2018-08-09T15:33:50.366Z,11.10
2018-08-09T15:36:19.382Z,11.60
2018-08-09T15:38:48.547Z,11.68
2018-08-09T15:41:17.638Z,10.72
2018-08-09T15:43:46.689Z,11.05
2018-08-09T15:46:15.701Z,11.85
2018-08-09T15:48:44.745Z,11.85
2018-08-09T15:51:13.909Z,10.98
2018-08-09T15:53:43.031Z,10.68
2018-08-09T15:56:12.382Z,11.05
2018-08-09T15:58:41.413Z,11.45
2018-08-09T16:01:10.905Z,10.30
2018-08-09T16:03:39.948Z,10.38
2018-08-09T16:06:08.985Z,10.88
2018-08-09T16:08:38.055Z,10.72
2018-08-09T16:11:07.047Z,10.53
2018-08-09T16:13:36.070Z,11.12
2018-08-09T16:16:05.667Z,10.32
2018-08-09T16:18:34.884Z,11.43
2018-08-09T16:21:03.887Z,11.08
2018-08-09T16:23:33.046Z,10.70
2018-08-09T16:26:02.120Z,11.40
2018-08-09T16:28:31.212Z,10.93
2018-08-09T16:31:00.411Z,10.80
2018-08-09T16:33:29.400Z,10.78
2018-08-09T16:35:58.433Z,11.57
2018-08-09T16:38:27.590Z,10.82
2018-08-09T16:40:56.713Z,10.30
2018-08-09T16:43:25.758Z,11.80
2018-08-09T16:45:54.918Z,11.67
2018-08-09T16:48:24.006Z,12.05
2018-08-09T16:50:53.144Z,11.73
2018-08-09T16:53:22.169Z,12.33
2018-08-09T16:55:51.160Z,13.40
2018-08-09T16:58:20.133Z,12.90
2018-08-09T17:00:49.166Z,13.63
2018-08-09T17:03:18.176Z,14.30
2018-08-09T17:05:47.192Z,14.60
2018-08-09T17:08:16.257Z,14.20
2018-08-09T17:10:45.269Z,14.03
2018-08-09T17:13:14.306Z,13.80
2018-08-09T17:15:43.363Z,15.77
2018-08-09T17:18:12.405Z,12.90
2018-08-09T17:20:41.498Z,16.33
2018-08-09T17:23:10.504Z,14.43
2018-08-09T17:25:39.578Z,14.97
2018-08-09T17:28:08.661Z,14.47
2018-08-09T17:30:37.713Z,14.10
2018-08-09T17:33:06.789Z,15.27
2018-08-09T17:35:35.806Z,16.27
2018-08-09T17:38:04.931Z,16.63
2018-08-09T17:40:34.593Z,16.30
2018-08-09T17:43:04.325Z,15.80
2018-08-09T17:45:35.689Z,15.80
2018-08-09T17:48:05.072Z,15.60
2018-08-09T17:50:34.209Z,16.57
2018-08-09T17:53:03.969Z,15.40
2018-08-09T17:55:33.477Z,16.47
2018-08-09T17:58:02.605Z,15.17
2018-08-09T18:00:32.930Z,16.57
2018-08-09T18:03:02.044Z,15.97
2018-08-09T18:05:31.089Z,15.67
2018-08-09T18:08:00.383Z,16.43
2018-08-09T18:10:32.066Z,15.93
2018-08-09T18:13:01.128Z,15.53
2018-08-09T18:15:30.888Z,17.17
2018-08-09T18:18:00.771Z,16.27
2018-08-09T18:20:35.472Z,15.77
2018-08-09T18:23:04.458Z,18.10
2018-08-09T18:25:33.546Z,15.37
2018-08-09T18:28:02.778Z,15.40
2018-08-09T18:30:31.977Z,16.20
2018-08-09T18:33:01.067Z,15.37
2018-08-09T18:35:30.042Z,15.30
2018-08-09T18:37:59.367Z,15.50
2018-08-09T18:40:29.032Z,16.83
2018-08-09T18:42:58.108Z,16.20
2018-08-09T18:45:27.226Z,18.73
2018-08-09T18:47:56.277Z,18.00
2018-08-09T18:50:27.745Z,17.27
2018-08-09T18:52:57.194Z,17.87
2018-08-09T18:55:26.319Z,17.17
2018-08-09T18:57:55.412Z,17.87
2018-08-09T19:00:26.485Z,16.20
2018-08-09T19:02:56.786Z,16.80
2018-08-09T19:05:26.272Z,17.30
2018-08-09T19:07:55.663Z,16.97
2018-08-09T19:10:26.706Z,17.33
2018-08-09T19:12:55.773Z,17.33
2018-08-09T19:15:24.900Z,16.23
2018-08-09T19:17:54.200Z,15.73
2018-08-09T19:20:29.931Z,16.17
2018-08-09T19:22:59.426Z,17.10
2018-08-09T19:25:28.610Z,16.23
2018-08-09T19:27:57.829Z,17.33
2018-08-09T19:30:28.273Z,16.13
2018-08-09T19:32:57.509Z,17.20
2018-08-09T19:35:26.563Z,17.10
2018-08-09T19:37:55.716Z,15.97
2018-08-09T19:40:26.666Z,16.40
2018-08-09T19:42:55.806Z,16.70
2018-08-09T19:45:24.920Z,17.93
2018-08-09T19:47:53.973Z,17.37
2018-08-09T19:50:23.906Z,16.60
2018-08-09T19:52:52.914Z,16.63
2018-08-09T19:55:24.398Z,16.67
2018-08-09T19:57:53.526Z,17.27
2018-08-09T20:00:23.864Z,16.93
2018-08-09T20:02:52.850Z,17.23
2018-08-09T20:05:21.826Z,16.70
2018-08-09T20:07:50.854Z,15.87
2018-08-09T20:10:19.988Z,16.87
2018-08-09T20:12:49.441Z,16.60
2018-08-09T20:15:19.831Z,18.60
2018-08-09T20:17:48.961Z,16.17
2018-08-09T20:20:19.411Z,18.77
2018-08-09T20:22:48.577Z,16.70
2018-08-09T20:25:17.666Z,17.57
2018-08-09T20:27:47.233Z,16.57
2018-08-09T20:30:17.288Z,17.87
2018-08-09T20:32:46.886Z,17.53
2018-08-09T20:35:18.168Z,15.73
2018-08-09T20:37:47.805Z,15.60
2018-08-09T20:40:17.589Z,17.03
2018-08-09T20:42:47.544Z,16.60
2018-08-09T20:45:17.924Z,17.00
2018-08-09T20:47:47.049Z,17.73
2018-08-09T20:50:18.227Z,17.07
2018-08-09T20:52:47.885Z,16.73
2018-08-09T20:55:17.103Z,18.27
2018-08-09T20:57:46.893Z,17.10
2018-08-09T21:00:18.332Z,17.73
2018-08-09T21:02:48.772Z,18.23
2018-08-09T21:05:19.253Z,17.23
2018-08-09T21:07:48.537Z,17.90
2018-08-09T21:10:17.636Z,17.33
2018-08-09T21:12:46.833Z,17.93
2018-08-09T21:15:16.435Z,16.70
2018-08-09T21:17:45.702Z,16.80
2018-08-09T21:20:15.150Z,15.93
2018-08-09T21:22:45.456Z,15.40
2018-08-09T21:25:14.546Z,17.23
2018-08-09T21:27:43.846Z,18.90
2018-08-09T21:30:15.366Z,16.63
2018-08-09T21:32:44.751Z,17.77
2018-08-09T21:35:13.716Z,16.93
2018-08-09T21:37:43.172Z,17.93
2018-08-09T21:40:12.944Z,18.37
2018-08-09T21:42:42.111Z,17.93
2018-08-09T21:45:14.230Z,18.23
2018-08-09T21:47:43.252Z,17.97
2018-08-09T21:50:14.886Z,17.23
2018-08-09T21:52:44.001Z,20.87
2018-08-09T21:55:13.429Z,17.73
2018-08-09T21:57:43.441Z,19.03
2018-08-09T22:01:17.209Z,18.37
2018-08-09T22:03:46.232Z,19.43
2018-08-09T22:06:20.415Z,18.47
2018-08-09T22:08:54.476Z,18.27
2018-08-09T22:11:36.439Z,17.73
2018-08-09T22:14:10.821Z,18.00
2018-08-09T22:16:44.979Z,18.40
2018-08-09T22:19:19.205Z,18.77
2018-08-09T22:21:53.586Z,16.87
2018-08-09T22:24:22.489Z,16.97
2018-08-09T22:26:51.506Z,19.60
2018-08-09T22:29:20.592Z,17.60
2018-08-09T22:31:49.606Z,18.97
2018-08-09T22:34:18.623Z,16.87
2018-08-09T22:36:47.628Z,17.90
2018-08-09T22:39:16.611Z,18.60
2018-08-09T22:41:45.726Z,18.10
2018-08-09T22:44:14.709Z,16.83
2018-08-09T22:46:43.867Z,18.33
2018-08-09T22:49:12.850Z,17.53
2018-08-09T22:51:41.768Z,18.30
2018-08-09T22:54:10.745Z,18.20
2018-08-09T22:56:39.746Z,16.57
2018-08-09T22:59:08.729Z,18.07
2018-08-09T23:01:37.767Z,19.57
2018-08-09T23:04:06.770Z,20.13
2018-08-09T23:06:35.786Z,19.63
2018-08-09T23:09:07.085Z,18.47
2018-08-09T23:11:36.087Z,19.00
2018-08-09T23:14:05.238Z,17.63
2018-08-09T23:16:34.288Z,19.87
2018-08-09T23:19:03.309Z,18.43
2018-08-09T23:21:32.508Z,18.17
2018-08-09T23:24:01.442Z,17.33
2018-08-09T23:26:30.545Z,20.73
2018-08-09T23:28:59.587Z,18.10
2018-08-09T23:31:28.669Z,19.73
2018-08-09T23:33:57.695Z,18.30
2018-08-09T23:36:26.648Z,18.63
2018-08-09T23:38:55.723Z,16.47
2018-08-09T23:41:24.664Z,19.67
2018-08-09T23:43:53.735Z,16.93
2018-08-09T23:46:22.686Z,19.60
2018-08-09T23:48:51.640Z,20.83
2018-08-09T23:51:20.610Z,19.80
2018-08-09T23:53:49.504Z,21.40
2018-08-09T23:56:18.527Z,20.63
2018-08-09T23:58:47.512Z,22.17
